Terminal Aerodrome Forecast
Issued by NWS Goodland, KS

Home | Current Version | Previous Version | Text Only | Print | Product List | Glossary On
Versions: 1 2 3 4 5 6 7 8 9 10 11 12
196
FTUS43 KGLD 070520
TAFGLD
TAF
KGLD 070520Z 0706/0806 28010KT P6SM BKN200 WS020/33035KT
     FM070630 30010G16KT P6SM SCT200
     FM071500 34018G28KT P6SM SCT200
     FM072000 32025G35KT P6SM SCT200
     FM080200 34015G25KT P6SM SCT200 WS020/35050KT=

USA.gov is the U.S. government's official web portal to all federal, state and local government web resources and services.